UACC/TSE METAR and TAF weather

Enter ICAO airport designator
Station Type Date Time Source
UACC METAR 2019/04/26 03:30 UTC NOAA

UACC 260330Z 07006MPS 9999 -SHRA SCT010 BKN036CB 04/03 Q1013 R04/2///60 NOSIG RMK QFE728/0971


Station Type Date Time Source
UACC Decoded METAR 2019/04/26 03:30 UTC NOAA

Astana, Kazakhstan (UACC) 51-12N 071-27E
Apr 25, 2019 - 11:30 PM EDT / 2019.04.26 0330 UTC
Wind: from the ENE (070 degrees) at 13 MPH (12 KT):0
Visibility: greater than 7 mile(s):0
Sky conditions: mostly cloudy
Weather: light rain showers; Cumulonimbus clouds observed
Temperature: 39 F (4 C)
Dew Point: 37 F (3 C)
Relative Humidity: 93%
Pressure (altimeter): 29.91 in. Hg (1013 hPa)
ob: UACC 260330Z 07006MPS 9999 -SHRA SCT010 BKN036CB 04/03 Q1013 R04/2///60 NOSIG RMK QFE728/0971
cycle: 3

Station Type Date Time Source
UACC TAF 2019/04/26 00:00 UTC NOAA

TAF UACC 252300Z 2600/2624 36006MPS 9999 SCT030CB OVC040 TX09/2610Z TN01/2624Z
TEMPO 2600/2607 VRB02MPS 3100 SHRASN BKN005 BKN020CB
BECMG 2607/2609 04006MPS SCT030CB BKN050
TEMPO 2607/2613 3100 SHRA BKN008 BKN030CB
FM261300 VRB02MPS 9999 SCT011 BKN100
TEMPO 2613/2624 -SHRA BKN020CB

Example: see airport list